createdAt,value
2018-03-22T00:02:00.503Z,-0.30
2018-03-22T00:04:28.025Z,-0.30
2018-03-22T00:06:56.342Z,-0.40
2018-03-22T00:09:23.866Z,-0.40
2018-03-22T00:11:51.414Z,-0.40
2018-03-22T00:14:19.719Z,-0.60
2018-03-22T00:16:47.271Z,-0.60
2018-03-22T00:19:14.791Z,-0.80
2018-03-22T00:21:43.115Z,-0.70
2018-03-22T00:24:10.644Z,-0.70
2018-03-22T00:26:38.190Z,-0.80
2018-03-22T00:29:06.487Z,-0.60
2018-03-22T00:31:34.035Z,-0.70
2018-03-22T00:34:01.830Z,-0.70
2018-03-22T00:36:29.389Z,-0.80
2018-03-22T00:38:56.904Z,-0.70
2018-03-22T00:41:24.429Z,-0.60
2018-03-22T00:43:52.100Z,-0.60
2018-03-22T00:46:20.381Z,-0.50
2018-03-22T00:48:48.692Z,-0.30
2018-03-22T00:51:16.213Z,-0.40
2018-03-22T00:53:44.525Z,-0.70
2018-03-22T00:56:12.045Z,-0.80
2018-03-22T00:58:40.349Z,-0.80
2018-03-22T01:01:07.860Z,-0.80
2018-03-22T01:03:36.173Z,-0.80
2018-03-22T01:06:03.953Z,-0.80
2018-03-22T01:08:31.498Z,-0.60
2018-03-22T01:10:59.017Z,-0.60
2018-03-22T01:13:27.325Z,-0.70
2018-03-22T01:15:54.846Z,-0.80
2018-03-22T01:18:23.165Z,-0.60
2018-03-22T01:20:50.681Z,-0.70
2018-03-22T01:23:18.961Z,-0.50
2018-03-22T01:25:46.507Z,-0.50
2018-03-22T01:28:14.822Z,-0.50
2018-03-22T01:30:42.362Z,-0.50
2018-03-22T01:33:09.891Z,-0.60
2018-03-22T01:35:38.196Z,-0.40
2018-03-22T01:38:05.718Z,-0.40
2018-03-22T01:40:34.030Z,-0.50
2018-03-22T01:43:01.549Z,-0.50
2018-03-22T01:45:29.871Z,-0.50
2018-03-22T01:47:57.385Z,-0.50
2018-03-22T01:50:25.689Z,-0.40
2018-03-22T01:53:05.065Z,-0.50
2018-03-22T01:55:32.650Z,-0.30
2018-03-22T01:58:00.928Z,-0.50
2018-03-22T02:00:29.557Z,-0.70
2018-03-22T02:02:57.087Z,-0.70
2018-03-22T02:05:24.625Z,-0.70
2018-03-22T02:07:52.905Z,-0.70
2018-03-22T02:10:20.488Z,-0.80
2018-03-22T02:12:48.001Z,-0.70
2018-03-22T02:15:16.300Z,-0.70
2018-03-22T02:17:43.853Z,-0.70
2018-03-22T02:20:11.373Z,-0.80
2018-03-22T02:22:38.914Z,-0.80
2018-03-22T02:25:06.466Z,-0.80
2018-03-22T02:27:34.006Z,-0.80
2018-03-22T02:30:01.532Z,-0.90
2018-03-22T02:32:29.066Z,-0.90
2018-03-22T02:34:57.358Z,-0.80
2018-03-22T02:37:24.905Z,-0.80
2018-03-22T02:39:53.186Z,-0.80
2018-03-22T02:42:20.725Z,-0.80
2018-03-22T02:44:49.026Z,-0.70
2018-03-22T02:47:16.565Z,-0.80
2018-03-22T02:49:44.840Z,-0.80
2018-03-22T02:52:13.150Z,-0.80
2018-03-22T02:54:40.669Z,-0.80
2018-03-22T02:57:08.981Z,-0.80
2018-03-22T02:59:36.521Z,-0.80
2018-03-22T03:02:04.042Z,-0.90
2018-03-22T03:04:32.344Z,-0.70
2018-03-22T03:06:59.984Z,-0.70
2018-03-22T03:09:27.480Z,-0.80
2018-03-22T03:11:55.017Z,-0.80
2018-03-22T03:14:22.552Z,-0.70
2018-03-22T03:16:50.824Z,-0.60
2018-03-22T03:19:19.128Z,-0.50
2018-03-22T03:21:46.642Z,-0.60
2018-03-22T03:24:14.172Z,-0.50
2018-03-22T03:26:41.697Z,-0.50
2018-03-22T03:29:09.233Z,-0.40
2018-03-22T03:31:37.530Z,-0.40
2018-03-22T03:34:05.072Z,-0.50
2018-03-22T03:36:32.584Z,-0.40
2018-03-22T03:39:00.117Z,-0.50
2018-03-22T03:41:28.415Z,-0.50
2018-03-22T03:43:56.754Z,-0.50
2018-03-22T03:46:24.291Z,-0.60
2018-03-22T03:48:51.804Z,-0.40
2018-03-22T03:51:19.341Z,-0.40
2018-03-22T03:53:46.885Z,-0.40
2018-03-22T03:56:14.428Z,-0.30
2018-03-22T03:58:41.940Z,-0.30
2018-03-22T04:01:09.476Z,-0.30
2018-03-22T04:03:37.006Z,-0.30
2018-03-22T04:06:04.556Z,-0.20
2018-03-22T04:08:32.064Z,-0.20
2018-03-22T04:10:59.601Z,-0.40
2018-03-22T04:13:27.113Z,-0.40
2018-03-22T04:15:54.657Z,-0.30
2018-03-22T04:18:22.173Z,-0.40
2018-03-22T04:20:49.703Z,-0.30
2018-03-22T04:23:17.220Z,-0.30
2018-03-22T04:25:44.764Z,-0.30
2018-03-22T04:28:13.056Z,-0.20
2018-03-22T04:30:40.596Z,-0.20
2018-03-22T04:33:08.877Z,-0.30
2018-03-22T04:35:37.194Z,-0.20
2018-03-22T04:38:04.708Z,-0.20
2018-03-22T04:40:32.992Z,-0.30
2018-03-22T04:43:00.577Z,-0.40
2018-03-22T04:45:28.087Z,-0.40
2018-03-22T04:47:56.396Z,-0.30
2018-03-22T04:50:23.909Z,-0.40
2018-03-22T04:52:52.223Z,-0.20
2018-03-22T04:55:19.753Z,-0.20
2018-03-22T04:57:48.632Z,-0.30
2018-03-22T05:00:16.924Z,-0.20
2018-03-22T05:02:44.460Z,-0.20
2018-03-22T05:05:12.740Z,-0.10
2018-03-22T05:07:41.166Z,-0.20
2018-03-22T05:10:08.697Z,-0.20
2018-03-22T05:12:36.302Z,-0.30
2018-03-22T05:15:03.778Z,-0.30
2018-03-22T05:17:32.089Z,-0.10
2018-03-22T05:19:59.653Z,-0.10
2018-03-22T05:22:27.201Z,-0.20
2018-03-22T05:24:54.709Z,-0.20
2018-03-22T05:27:22.541Z,-0.10
2018-03-22T05:29:50.085Z,-0.10
2018-03-22T05:32:17.628Z,-0.10
2018-03-22T05:34:45.174Z,0.10
2018-03-22T05:37:12.681Z,0.00
2018-03-22T05:39:40.233Z,-0.10
2018-03-22T05:42:07.758Z,-0.10
2018-03-22T05:44:35.297Z,-0.10
2018-03-22T05:47:02.917Z,0.00
2018-03-22T05:49:30.452Z,0.00
2018-03-22T05:51:57.965Z,0.20
2018-03-22T05:54:26.348Z,0.20
2018-03-22T05:56:53.881Z,0.30
2018-03-22T05:59:22.188Z,0.50
2018-03-22T06:01:49.722Z,0.60
2018-03-22T06:04:17.273Z,0.60
2018-03-22T06:06:45.549Z,0.60
2018-03-22T06:09:13.861Z,0.60
2018-03-22T06:11:41.372Z,0.60
2018-03-22T06:14:09.676Z,0.60
2018-03-22T06:16:37.185Z,0.60
2018-03-22T06:19:04.724Z,0.70
2018-03-22T06:21:33.001Z,0.80
2018-03-22T06:24:00.553Z,0.80
2018-03-22T06:26:28.073Z,0.90
2018-03-22T06:28:55.649Z,0.90
2018-03-22T06:31:23.163Z,0.90
2018-03-22T06:33:51.443Z,0.90
2018-03-22T06:36:18.995Z,0.90
2018-03-22T06:38:46.519Z,0.90
2018-03-22T06:41:14.055Z,0.90
2018-03-22T06:43:42.335Z,1.10
2018-03-22T06:46:09.869Z,1.00
2018-03-22T06:48:39.229Z,1.10
2018-03-22T06:51:07.537Z,1.10
2018-03-22T06:53:35.061Z,1.10
2018-03-22T06:56:03.365Z,1.20
2018-03-22T06:58:30.897Z,1.10
2018-03-22T07:00:59.212Z,1.20
2018-03-22T07:03:26.730Z,1.20
2018-03-22T07:05:54.273Z,1.30
2018-03-22T07:08:21.810Z,1.30
2018-03-22T07:10:49.354Z,1.30
2018-03-22T07:13:16.861Z,1.40
2018-03-22T07:15:44.406Z,1.40
2018-03-22T07:18:12.693Z,1.50
2018-03-22T07:20:40.246Z,1.50
2018-03-22T07:23:07.793Z,1.60
2018-03-22T07:25:36.069Z,1.60
2018-03-22T07:28:03.624Z,1.60
2018-03-22T07:30:31.908Z,1.70
2018-03-22T07:32:59.441Z,1.60
2018-03-22T07:35:27.719Z,1.80
2018-03-22T07:37:56.025Z,1.80
2018-03-22T07:40:23.533Z,1.80
2018-03-22T07:42:56.748Z,1.90
2018-03-22T07:45:24.329Z,1.90
2018-03-22T07:47:52.584Z,1.90
2018-03-22T07:50:20.111Z,1.90
2018-03-22T07:52:47.649Z,1.90
2018-03-22T07:55:15.961Z,2.00
2018-03-22T07:57:44.262Z,2.00
2018-03-22T08:00:12.048Z,2.00
2018-03-22T08:02:39.593Z,2.00
2018-03-22T08:05:07.121Z,2.10
2018-03-22T08:07:34.629Z,2.10
2018-03-22T08:10:02.165Z,2.20
2018-03-22T08:12:29.737Z,2.20
2018-03-22T08:14:57.259Z,2.30
2018-03-22T08:17:24.765Z,2.40
2018-03-22T08:19:52.296Z,2.40
2018-03-22T08:22:19.807Z,2.30
2018-03-22T08:24:47.342Z,2.30
2018-03-22T08:27:15.633Z,2.30
2018-03-22T08:29:43.185Z,2.30
2018-03-22T08:32:11.710Z,2.40
2018-03-22T08:34:39.249Z,2.40
2018-03-22T08:37:06.761Z,2.50
2018-03-22T08:39:34.310Z,2.60
2018-03-22T08:42:01.826Z,2.60
2018-03-22T08:44:29.358Z,2.60
2018-03-22T08:46:56.864Z,2.60
2018-03-22T08:49:24.373Z,2.60
2018-03-22T08:51:51.909Z,2.70
2018-03-22T08:54:20.180Z,2.60
2018-03-22T08:56:48.481Z,2.70
2018-03-22T08:59:15.997Z,2.70
2018-03-22T09:01:43.538Z,2.60
2018-03-22T09:04:11.065Z,2.60
2018-03-22T09:06:38.600Z,2.60
2018-03-22T09:09:06.118Z,2.60
2018-03-22T09:11:33.652Z,2.70
2018-03-22T09:14:01.167Z,2.70
2018-03-22T09:16:28.724Z,2.60
2018-03-22T09:18:56.237Z,2.40
2018-03-22T09:21:23.772Z,2.40
2018-03-22T09:23:51.297Z,2.40
2018-03-22T09:26:18.834Z,2.20
2018-03-22T09:28:46.349Z,2.20
2018-03-22T09:31:13.888Z,2.20
2018-03-22T09:33:41.405Z,2.00
2018-03-22T09:36:08.945Z,2.00
2018-03-22T09:38:36.516Z,1.90
2018-03-22T09:41:04.796Z,1.80
2018-03-22T09:43:32.336Z,1.80
2018-03-22T09:46:00.612Z,1.90
2018-03-22T09:48:28.201Z,1.90
2018-03-22T09:50:55.746Z,1.90
2018-03-22T09:53:23.294Z,2.00
2018-03-22T09:55:50.808Z,2.00
2018-03-22T09:58:18.346Z,2.00
2018-03-22T10:00:46.623Z,2.00
2018-03-22T10:03:14.482Z,2.00
2018-03-22T10:05:41.992Z,2.10
2018-03-22T10:08:10.845Z,2.00
2018-03-22T10:10:38.373Z,2.00
2018-03-22T10:13:05.913Z,2.00
2018-03-22T10:15:33.734Z,1.90
2018-03-22T10:18:02.044Z,2.00
2018-03-22T10:20:29.580Z,1.90
2018-03-22T10:22:57.879Z,1.80
2018-03-22T10:25:25.413Z,1.80
2018-03-22T10:27:53.716Z,1.90
2018-03-22T10:30:21.253Z,1.90
2018-03-22T10:32:48.804Z,1.90
2018-03-22T10:35:16.329Z,1.90
2018-03-22T10:37:43.845Z,1.90
2018-03-22T10:40:11.380Z,1.80
2018-03-22T10:42:38.895Z,1.80
2018-03-22T10:45:06.465Z,1.80
2018-03-22T10:47:34.745Z,1.70
2018-03-22T10:50:03.050Z,1.70
2018-03-22T10:52:30.563Z,1.70
2018-03-22T10:54:58.103Z,1.80
2018-03-22T10:57:25.621Z,1.80
2018-03-22T10:59:53.156Z,1.70
2018-03-22T11:02:27.242Z,1.70
2018-03-22T11:04:54.786Z,1.70
2018-03-22T11:07:22.305Z,1.70
2018-03-22T11:09:49.849Z,1.70
2018-03-22T11:12:17.365Z,1.70
2018-03-22T11:14:44.904Z,1.70
2018-03-22T11:17:12.425Z,1.70
2018-03-22T11:19:40.090Z,1.70
2018-03-22T11:22:07.605Z,1.70
2018-03-22T11:24:35.889Z,1.80
2018-03-22T11:27:04.193Z,1.80
2018-03-22T11:29:31.717Z,1.80
2018-03-22T11:32:00.021Z,1.80
2018-03-22T11:34:27.593Z,1.80
2018-03-22T11:36:55.092Z,1.80
2018-03-22T11:39:23.373Z,1.80
2018-03-22T11:41:51.684Z,1.80
2018-03-22T11:44:19.201Z,1.80
2018-03-22T11:46:47.509Z,1.90
2018-03-22T11:49:15.041Z,1.90
2018-03-22T11:51:42.581Z,1.90
2018-03-22T11:54:10.856Z,2.00
2018-03-22T11:56:39.165Z,2.00
2018-03-22T11:59:06.751Z,2.00
2018-03-22T12:01:34.244Z,2.10
2018-03-22T12:04:02.527Z,2.00
2018-03-22T12:06:30.093Z,2.00
2018-03-22T12:08:57.618Z,2.00
2018-03-22T12:11:25.157Z,2.10
2018-03-22T12:13:52.676Z,2.10
2018-03-22T12:16:20.260Z,2.10
2018-03-22T12:18:47.749Z,2.10
2018-03-22T12:21:16.067Z,2.10
2018-03-22T12:23:43.597Z,2.10
2018-03-22T12:26:11.137Z,2.20
2018-03-22T12:28:39.417Z,2.20
2018-03-22T12:31:08.049Z,2.20
2018-03-22T12:33:35.564Z,2.20
2018-03-22T12:36:03.079Z,2.30
2018-03-22T12:38:30.637Z,2.30
2018-03-22T12:40:58.154Z,2.40
2018-03-22T12:43:25.726Z,2.40
2018-03-22T12:45:53.234Z,2.40
2018-03-22T12:48:21.532Z,2.50
2018-03-22T12:50:49.048Z,2.50
2018-03-22T12:53:16.586Z,2.50
2018-03-22T12:55:44.116Z,2.40
2018-03-22T12:58:11.661Z,2.50
2018-03-22T13:00:39.188Z,2.50
2018-03-22T13:03:07.505Z,2.50
2018-03-22T13:05:35.379Z,2.50
2018-03-22T13:08:03.680Z,2.50
2018-03-22T13:10:31.194Z,2.50
2018-03-22T13:12:58.748Z,2.50
2018-03-22T13:15:26.265Z,2.60
2018-03-22T13:17:54.560Z,2.60
2018-03-22T13:20:22.093Z,2.60
2018-03-22T13:22:50.405Z,2.70
2018-03-22T13:25:17.917Z,2.60
2018-03-22T13:27:45.436Z,2.70
2018-03-22T13:30:13.083Z,2.70
2018-03-22T13:32:40.605Z,2.80
2018-03-22T13:35:08.209Z,2.80
2018-03-22T13:37:35.731Z,2.80
2018-03-22T13:40:03.273Z,2.80
2018-03-22T13:42:31.553Z,2.80
2018-03-22T13:44:59.849Z,2.90
2018-03-22T13:47:27.368Z,2.80
2018-03-22T13:49:55.675Z,2.90
2018-03-22T13:52:23.221Z,2.80
2018-03-22T13:54:50.761Z,2.90
2018-03-22T13:57:19.056Z,2.80
2018-03-22T13:59:46.634Z,2.80
2018-03-22T14:02:14.157Z,2.80
2018-03-22T14:04:41.697Z,2.80
2018-03-22T14:07:09.986Z,2.80
2018-03-22T14:09:37.541Z,2.70
2018-03-22T14:12:05.850Z,2.90
2018-03-22T14:14:33.357Z,2.90
2018-03-22T14:17:01.665Z,3.00
2018-03-22T14:19:29.184Z,2.90
2018-03-22T14:21:57.484Z,2.90
2018-03-22T14:24:25.011Z,2.90
2018-03-22T14:26:53.317Z,2.80
2018-03-22T14:29:20.838Z,2.80
2018-03-22T14:31:48.381Z,2.80
2018-03-22T14:34:15.896Z,2.80
2018-03-22T14:36:43.435Z,2.80
2018-03-22T14:39:10.987Z,2.80
2018-03-22T14:41:39.440Z,2.80
2018-03-22T14:44:06.993Z,2.80
2018-03-22T14:46:34.563Z,2.90
2018-03-22T14:49:02.857Z,3.00
2018-03-22T14:51:30.399Z,2.90
2018-03-22T14:53:58.685Z,2.90
2018-03-22T14:56:26.260Z,2.90
2018-03-22T14:58:53.773Z,2.90
2018-03-22T15:01:22.068Z,3.00
2018-03-22T15:03:50.693Z,3.00
2018-03-22T15:06:18.224Z,3.00
2018-03-22T15:08:45.772Z,3.10
2018-03-22T15:11:13.295Z,3.00
2018-03-22T15:13:40.828Z,3.10
2018-03-22T15:16:08.344Z,3.10
2018-03-22T15:18:36.132Z,3.20
2018-03-22T15:21:03.646Z,3.10
2018-03-22T15:23:31.189Z,3.20
2018-03-22T15:25:58.725Z,3.20
2018-03-22T15:28:26.284Z,3.10
2018-03-22T15:30:53.804Z,3.20
2018-03-22T15:33:24.308Z,3.20
2018-03-22T15:35:53.769Z,3.20
2018-03-22T15:38:23.948Z,3.20
2018-03-22T15:46:40.875Z,3.30
2018-03-22T15:49:12.164Z,3.30
2018-03-22T15:51:49.335Z,3.40
2018-03-22T15:54:18.115Z,3.40
2018-03-22T15:56:45.633Z,3.40
2018-03-22T15:59:13.200Z,3.50
2018-03-22T16:01:40.866Z,3.50
2018-03-22T16:04:08.416Z,3.50
2018-03-22T16:06:35.932Z,3.50
2018-03-22T16:09:03.494Z,3.50
2018-03-22T16:11:31.773Z,3.50
2018-03-22T16:14:00.094Z,3.50
2018-03-22T16:16:32.368Z,3.40
2018-03-22T16:19:02.794Z,3.50
2018-03-22T16:21:30.764Z,3.40
2018-03-22T16:23:59.033Z,3.50
2018-03-22T16:26:26.575Z,3.60
2018-03-22T16:28:54.137Z,3.60
2018-03-22T16:31:21.688Z,3.60
2018-03-22T16:33:50.209Z,3.50
2018-03-22T16:36:17.724Z,3.60
2018-03-22T16:38:45.237Z,3.60
2018-03-22T16:41:13.577Z,3.60
2018-03-22T16:43:41.092Z,3.60
2018-03-22T16:46:08.653Z,3.60
2018-03-22T16:48:36.197Z,3.60
2018-03-22T16:51:03.745Z,3.70
2018-03-22T16:53:32.029Z,3.60
2018-03-22T16:55:59.549Z,3.60
2018-03-22T16:58:27.896Z,3.60
2018-03-22T17:00:55.417Z,3.60
2018-03-22T17:03:22.961Z,3.60
2018-03-22T17:05:51.264Z,3.60
2018-03-22T17:08:18.799Z,3.60
2018-03-22T17:10:46.317Z,3.50
2018-03-22T17:13:14.657Z,3.50
2018-03-22T17:15:42.178Z,3.50
2018-03-22T17:18:10.484Z,3.60
2018-03-22T17:20:38.016Z,3.50
2018-03-22T17:23:05.561Z,3.60
2018-03-22T17:25:33.852Z,3.60
2018-03-22T17:28:02.564Z,3.60
2018-03-22T17:30:30.289Z,3.60
2018-03-22T17:33:01.121Z,3.60
2018-03-22T17:35:29.400Z,3.60
2018-03-22T17:37:56.951Z,3.50
2018-03-22T17:40:24.469Z,3.60
2018-03-22T17:42:52.037Z,3.50
2018-03-22T17:45:19.554Z,3.60
2018-03-22T17:47:47.065Z,3.60
2018-03-22T17:50:15.385Z,3.60
2018-03-22T17:52:42.938Z,3.60
2018-03-22T17:55:10.478Z,3.60
2018-03-22T17:57:38.062Z,3.60
2018-03-22T18:00:06.315Z,3.60
2018-03-22T18:02:33.831Z,3.60
2018-03-22T18:05:02.137Z,3.60
2018-03-22T18:07:29.652Z,3.60
2018-03-22T18:09:57.188Z,3.60
2018-03-22T18:12:25.043Z,3.60
2018-03-22T18:14:52.581Z,3.60
2018-03-22T18:17:20.096Z,3.50
2018-03-22T18:19:48.382Z,3.60
2018-03-22T18:22:17.108Z,3.60
2018-03-22T18:24:44.640Z,3.60
2018-03-22T18:27:12.182Z,3.50
2018-03-22T18:29:40.484Z,3.50
2018-03-22T18:32:08.369Z,3.50
2018-03-22T18:34:35.893Z,3.50
2018-03-22T18:37:03.453Z,3.40
2018-03-22T18:39:30.980Z,3.50
2018-03-22T18:41:59.281Z,3.40
2018-03-22T18:44:26.800Z,3.40
2018-03-22T18:46:55.110Z,3.50
2018-03-22T18:49:22.631Z,3.50
2018-03-22T18:51:50.938Z,3.50
2018-03-22T18:54:18.452Z,3.50
2018-03-22T18:56:45.990Z,3.40
2018-03-22T18:59:13.518Z,3.50
2018-03-22T19:01:41.077Z,3.50
2018-03-22T19:04:08.598Z,3.40
2018-03-22T19:06:37.121Z,3.40
2018-03-22T19:09:05.433Z,3.40
2018-03-22T19:11:32.973Z,3.30
2018-03-22T19:14:00.512Z,3.50
2018-03-22T19:16:28.033Z,3.40
2018-03-22T19:18:55.569Z,3.50
2018-03-22T19:21:23.871Z,3.50
2018-03-22T19:23:51.418Z,3.50
2018-03-22T19:26:18.944Z,3.40
2018-03-22T19:28:46.477Z,3.50
2018-03-22T19:31:13.988Z,3.50
2018-03-22T19:33:41.528Z,3.50
2018-03-22T19:36:09.853Z,3.40
2018-03-22T19:38:37.358Z,3.40
2018-03-22T19:41:05.652Z,3.40
2018-03-22T19:43:33.188Z,3.40
2018-03-22T19:46:01.465Z,3.50
2018-03-22T19:48:29.762Z,3.40
2018-03-22T19:50:57.273Z,3.40
2018-03-22T19:53:24.808Z,3.40
2018-03-22T19:55:52.325Z,3.50
2018-03-22T19:58:19.870Z,3.50
2018-03-22T20:00:47.385Z,3.50
2018-03-22T20:03:14.917Z,3.40
2018-03-22T20:05:42.430Z,3.40
2018-03-22T20:08:10.735Z,3.40
2018-03-22T20:10:38.249Z,3.40
2018-03-22T20:13:06.555Z,3.40
2018-03-22T20:15:34.101Z,3.40
2018-03-22T20:18:01.640Z,3.40
2018-03-22T20:20:29.926Z,3.50
2018-03-22T20:22:57.477Z,3.50
2018-03-22T20:25:25.748Z,3.40
2018-03-22T20:27:54.030Z,3.40
2018-03-22T20:30:21.573Z,3.40
2018-03-22T20:32:49.862Z,3.50
2018-03-22T20:35:17.409Z,3.50
2018-03-22T20:37:45.685Z,3.40
2018-03-22T20:40:14.313Z,3.50
2018-03-22T20:42:41.836Z,3.40
2018-03-22T20:45:09.374Z,3.40
2018-03-22T20:47:37.732Z,3.40
2018-03-22T20:50:05.402Z,3.40
2018-03-22T20:52:33.701Z,3.50
2018-03-22T20:55:01.294Z,3.50
2018-03-22T20:57:28.818Z,3.40
2018-03-22T20:59:56.355Z,3.50
2018-03-22T21:02:24.633Z,3.50
2018-03-22T21:04:52.174Z,3.50
2018-03-22T21:07:20.466Z,3.40
2018-03-22T21:09:48.038Z,3.40
2018-03-22T21:12:15.574Z,3.50
2018-03-22T21:14:43.873Z,3.50
2018-03-22T21:17:11.384Z,3.50
2018-03-22T21:19:38.916Z,3.50
2018-03-22T21:22:06.433Z,3.50
2018-03-22T21:24:33.974Z,3.50
2018-03-22T21:27:02.267Z,3.40
2018-03-22T21:29:29.821Z,3.40
2018-03-22T21:31:57.345Z,3.40
2018-03-22T21:34:25.647Z,3.50
2018-03-22T21:36:53.200Z,3.50
2018-03-22T21:39:20.742Z,3.50
2018-03-22T21:42:00.846Z,3.40
2018-03-22T21:44:28.387Z,3.40
2018-03-22T21:46:55.905Z,3.40
2018-03-22T21:49:24.211Z,3.40
2018-03-22T21:52:03.478Z,3.40
2018-03-22T21:54:31.029Z,3.40
2018-03-22T21:56:58.545Z,3.50
2018-03-22T21:59:26.125Z,3.50
2018-03-22T22:01:54.084Z,3.50
2018-03-22T22:04:21.626Z,3.50
2018-03-22T22:06:49.157Z,3.50
2018-03-22T22:09:17.486Z,3.40
2018-03-22T22:11:45.001Z,3.40
2018-03-22T22:14:12.526Z,3.40
2018-03-22T22:16:40.074Z,3.40
2018-03-22T22:19:07.610Z,3.50
2018-03-22T22:21:35.152Z,3.40
2018-03-22T22:24:02.673Z,3.50
2018-03-22T22:26:31.001Z,3.50
2018-03-22T22:28:58.521Z,3.50
2018-03-22T22:31:26.066Z,3.40
2018-03-22T22:36:28.265Z,3.50
2018-03-22T22:38:55.782Z,3.50
2018-03-22T22:41:23.320Z,3.50
2018-03-22T22:43:50.845Z,3.50
2018-03-22T22:46:18.382Z,3.50
2018-03-22T22:48:45.906Z,3.50
2018-03-22T22:51:14.223Z,3.40
2018-03-22T22:53:41.746Z,3.40
2018-03-22T22:56:10.065Z,3.40
2018-03-22T22:58:37.581Z,3.30
2018-03-22T23:01:05.891Z,3.40
2018-03-22T23:03:34.197Z,3.30
2018-03-22T23:06:01.741Z,3.30
2018-03-22T23:08:29.253Z,3.40
2018-03-22T23:10:56.793Z,3.40
2018-03-22T23:13:25.077Z,3.50
2018-03-22T23:15:53.420Z,3.60
2018-03-22T23:18:20.912Z,3.50
2018-03-22T23:20:49.220Z,3.60
2018-03-22T23:23:16.736Z,3.60
2018-03-22T23:25:45.098Z,3.50
2018-03-22T23:28:12.581Z,3.50
2018-03-22T23:30:40.122Z,3.50
2018-03-22T23:33:08.401Z,3.50
2018-03-22T23:35:36.705Z,3.50
2018-03-22T23:38:04.216Z,3.50
2018-03-22T23:40:32.636Z,3.50
2018-03-22T23:43:00.151Z,3.50
2018-03-22T23:45:28.457Z,3.50
2018-03-22T23:47:55.985Z,3.50
2018-03-22T23:50:24.297Z,3.50
2018-03-22T23:52:51.817Z,3.50
2018-03-22T23:55:20.153Z,3.60
2018-03-22T23:57:47.681Z,3.50
